createdAt,value
2022-08-21T00:00:53.717Z,609.72
2022-08-21T00:03:21.190Z,611.88
2022-08-21T00:05:51.116Z,604.85
2022-08-21T00:08:20.257Z,603.30
2022-08-21T00:10:49.267Z,601.72
2022-08-21T00:13:18.750Z,602.55
2022-08-21T00:15:47.337Z,601.78
2022-08-21T00:18:15.571Z,608.03
2022-08-21T00:20:44.279Z,612.97
2022-08-21T00:23:12.640Z,598.67
2022-08-21T00:25:40.537Z,617.50
2022-08-21T00:28:07.969Z,613.40
2022-08-21T00:30:35.734Z,617.72
2022-08-21T00:33:03.865Z,593.30
2022-08-21T00:35:38.809Z,620.20
2022-08-21T00:38:09.443Z,674.92
2022-08-21T00:40:42.390Z,589.88
2022-08-21T00:43:14.177Z,627.00
2022-08-21T00:45:41.737Z,625.70
2022-08-21T00:48:10.783Z,605.45
2022-08-21T00:50:45.390Z,612.50
2022-08-21T00:53:13.593Z,648.22
2022-08-21T00:55:42.218Z,602.17
2022-08-21T00:58:12.362Z,619.85
2022-08-21T01:00:42.589Z,609.88
2022-08-21T01:03:15.960Z,653.17
2022-08-21T01:05:45.175Z,589.13
2022-08-21T01:08:15.201Z,486.38
2022-08-21T01:10:42.866Z,605.33
2022-08-21T01:13:12.707Z,558.65
2022-08-21T01:15:45.871Z,610.67
2022-08-21T01:18:13.896Z,641.97
2022-08-21T01:20:45.458Z,653.80
2022-08-21T01:23:13.922Z,562.57
2022-08-21T01:25:41.492Z,587.67
2022-08-21T01:28:14.866Z,633.72
2022-08-21T01:30:44.723Z,643.70
2022-08-21T01:33:12.615Z,588.63
2022-08-21T01:35:40.172Z,609.38
2022-08-21T01:38:08.304Z,606.83
2022-08-21T01:40:36.055Z,589.63
2022-08-21T01:43:04.161Z,561.83
2022-08-21T01:45:32.187Z,573.22
2022-08-21T01:47:59.531Z,582.05
2022-08-21T01:50:27.119Z,575.65
2022-08-21T01:52:54.524Z,581.60
2022-08-21T01:55:25.738Z,574.08
2022-08-21T01:57:53.472Z,570.58
2022-08-21T02:00:23.971Z,577.58
2022-08-21T02:02:52.053Z,578.28
2022-08-21T02:05:19.815Z,567.38
2022-08-21T02:07:50.326Z,579.20
2022-08-21T02:10:22.197Z,570.65
2022-08-21T02:12:51.497Z,563.25
2022-08-21T02:15:19.934Z,575.55
2022-08-21T02:17:52.124Z,572.47
2022-08-21T02:20:33.954Z,570.03
2022-08-21T02:23:01.799Z,568.88
2022-08-21T02:25:31.564Z,574.58
2022-08-21T02:28:01.291Z,581.53
2022-08-21T02:30:32.855Z,574.70
2022-08-21T02:33:01.147Z,583.28
2022-08-21T02:35:29.388Z,577.13
2022-08-21T02:38:02.801Z,588.78
2022-08-21T02:40:33.775Z,581.72
2022-08-21T02:43:02.269Z,588.92
2022-08-21T02:45:30.335Z,583.20
2022-08-21T02:48:01.541Z,596.15
2022-08-21T02:50:35.489Z,597.55
2022-08-21T02:53:04.962Z,583.30
2022-08-21T02:55:33.784Z,590.78
2022-08-21T02:58:01.883Z,596.72
2022-08-21T03:00:31.379Z,604.10
2022-08-21T03:03:00.276Z,597.83
2022-08-21T03:05:29.883Z,598.65
2022-08-21T03:07:57.290Z,609.03
2022-08-21T03:10:24.723Z,612.72
2022-08-21T03:12:52.983Z,624.63
2022-08-21T03:15:23.425Z,675.67
2022-08-21T03:17:52.463Z,734.80
2022-08-21T03:20:23.240Z,772.67
2022-08-21T03:22:52.921Z,602.05
2022-08-21T03:25:32.147Z,608.60
2022-08-21T03:28:12.917Z,597.47
2022-08-21T03:30:42.577Z,622.92
2022-08-21T03:33:12.166Z,618.45
2022-08-21T03:35:41.712Z,687.88
2022-08-21T03:38:09.396Z,710.28
2022-08-21T03:40:37.439Z,706.17
2022-08-21T03:43:05.067Z,607.42
2022-08-21T03:45:33.605Z,665.03
2022-08-21T03:48:04.084Z,712.97
2022-08-21T03:50:35.151Z,612.47
2022-08-21T03:53:16.954Z,620.63
2022-08-21T03:55:50.247Z,617.42
2022-08-21T03:58:21.026Z,658.70
2022-08-21T04:00:51.511Z,674.40
2022-08-21T04:03:19.232Z,619.17
2022-08-21T04:05:47.392Z,630.42
2022-08-21T04:08:16.649Z,719.85
2022-08-21T04:10:45.252Z,700.03
2022-08-21T04:13:13.158Z,627.25
2022-08-21T04:15:40.935Z,718.20
2022-08-21T04:18:09.623Z,621.40
2022-08-21T04:20:37.141Z,700.95
2022-08-21T04:23:05.057Z,781.22
2022-08-21T04:25:32.953Z,686.97
2022-08-21T04:28:00.666Z,617.42
2022-08-21T04:30:28.880Z,641.10
2022-08-21T04:32:58.908Z,661.28
2022-08-21T04:35:29.095Z,608.28
2022-08-21T04:37:57.184Z,610.42
2022-08-21T04:40:27.831Z,614.50
2022-08-21T04:43:00.351Z,611.50
2022-08-21T04:45:31.139Z,626.58
2022-08-21T04:48:01.260Z,645.17
2022-08-21T04:50:40.677Z,636.22
2022-08-21T04:53:15.426Z,663.75
2022-08-21T04:55:43.698Z,650.10
2022-08-21T04:58:14.203Z,653.53
2022-08-21T05:00:42.257Z,657.65
2022-08-21T05:03:12.632Z,657.95
2022-08-21T05:05:40.972Z,668.53
2022-08-21T05:08:10.384Z,670.05
2022-08-21T05:10:37.916Z,661.20
2022-08-21T05:13:07.329Z,661.47
2022-08-21T05:15:35.277Z,660.88
2022-08-21T05:18:02.625Z,660.05
2022-08-21T05:20:30.347Z,657.22
2022-08-21T05:22:58.097Z,670.53
2022-08-21T05:25:26.298Z,669.83
2022-08-21T05:27:55.799Z,669.08
2022-08-21T05:30:25.659Z,664.58
2022-08-21T05:33:01.734Z,684.70
2022-08-21T05:35:30.752Z,698.97
2022-08-21T05:37:59.093Z,709.28
2022-08-21T05:40:27.214Z,724.85
2022-08-21T05:42:56.646Z,730.58
2022-08-21T05:45:43.383Z,757.75
2022-08-21T05:48:15.658Z,749.47
2022-08-21T05:50:43.955Z,754.55
2022-08-21T05:53:12.064Z,784.97
2022-08-21T05:55:45.199Z,783.05
2022-08-21T05:58:16.407Z,794.85
2022-08-21T06:00:44.636Z,886.90
2022-08-21T06:03:23.564Z,961.97
2022-08-21T06:05:51.048Z,998.72
2022-08-21T06:08:19.644Z,800.13
2022-08-21T06:10:48.676Z,842.17
2022-08-21T06:13:17.812Z,903.58
2022-08-21T06:15:45.580Z,902.72
2022-08-21T06:18:13.431Z,922.50
2022-08-21T06:20:41.446Z,863.47
2022-08-21T06:23:09.471Z,900.75
2022-08-21T06:25:37.647Z,824.38
2022-08-21T06:28:07.522Z,846.20
2022-08-21T06:30:37.274Z,841.17
2022-08-21T06:33:05.020Z,829.00
2022-08-21T06:35:32.579Z,823.75
2022-08-21T06:38:00.265Z,832.15
2022-08-21T06:40:29.851Z,867.70
2022-08-21T06:42:59.572Z,801.40
2022-08-21T06:45:32.471Z,808.05
2022-08-21T06:48:00.781Z,790.92
2022-08-21T06:50:28.309Z,837.00
2022-08-21T06:53:11.581Z,846.35
2022-08-21T06:55:40.152Z,857.40
2022-08-21T06:58:08.500Z,870.28
2022-08-21T07:00:39.345Z,648.55
2022-08-21T07:03:06.853Z,643.22
2022-08-21T07:05:34.675Z,663.92
2022-08-21T07:08:02.270Z,670.80
2022-08-21T07:10:29.850Z,685.90
2022-08-21T07:13:01.029Z,729.17
2022-08-21T07:15:32.412Z,714.88
2022-08-21T07:18:00.967Z,669.35
2022-08-21T07:20:29.956Z,677.42
2022-08-21T07:23:01.019Z,653.05
2022-08-21T07:25:28.849Z,649.00
2022-08-21T07:27:56.503Z,635.45
2022-08-21T07:30:25.014Z,624.58
2022-08-21T07:32:53.169Z,611.45
2022-08-21T07:35:21.673Z,610.05
2022-08-21T07:37:49.450Z,618.75
2022-08-21T07:40:18.452Z,619.10
2022-08-21T07:42:51.100Z,589.83
2022-08-21T07:45:25.494Z,592.83
2022-08-21T07:47:57.137Z,572.65
2022-08-21T07:50:25.814Z,556.25
2022-08-21T07:52:54.361Z,584.88
2022-08-21T07:55:22.859Z,547.15
2022-08-21T07:57:50.999Z,490.25
2022-08-21T08:00:23.770Z,535.08
2022-08-21T08:02:54.247Z,358.15
2022-08-21T08:05:25.036Z,496.73
2022-08-21T08:07:52.507Z,354.67
2022-08-21T08:10:20.827Z,255.02
2022-08-21T08:12:49.249Z,332.20
2022-08-21T08:15:24.146Z,454.63
2022-08-21T08:17:51.860Z,268.52
2022-08-21T08:20:20.527Z,448.98
2022-08-21T08:22:50.227Z,415.13
2022-08-21T08:25:20.114Z,428.45
2022-08-21T08:27:48.174Z,274.92
2022-08-21T08:30:18.045Z,200.82
2022-08-21T08:32:46.386Z,129.55
2022-08-21T08:35:15.405Z,232.45
2022-08-21T08:37:43.927Z,222.77
2022-08-21T08:40:26.528Z,31.42
2022-08-21T08:42:53.989Z,140.15
2022-08-21T08:45:27.294Z,278.05
2022-08-21T08:50:57.691Z,188.20
2022-08-21T08:53:34.320Z,206.52
2022-08-21T08:56:04.849Z,59.78
2022-08-21T08:58:40.589Z,104.07
2022-08-21T09:01:19.991Z,93.82
2022-08-21T09:03:51.265Z,175.48
2022-08-21T09:06:45.442Z,145.15
2022-08-21T09:09:52.663Z,130.02
2022-08-21T09:12:40.463Z,144.40
2022-08-21T09:15:21.221Z,185.43
2022-08-21T09:17:58.141Z,147.20
2022-08-21T09:20:38.040Z,102.63
2022-08-21T09:23:25.623Z,147.38
2022-08-21T09:25:57.820Z,177.82
2022-08-21T09:28:25.349Z,136.00
2022-08-21T09:30:57.278Z,97.63
2022-08-21T09:33:24.803Z,96.50
2022-08-21T09:35:54.921Z,71.38
2022-08-21T09:38:40.557Z,94.65
2022-08-21T09:41:11.853Z,78.28
2022-08-21T09:43:40.258Z,71.93
2022-08-21T09:46:11.784Z,38.38
2022-08-21T09:48:49.566Z,47.47
2022-08-21T09:51:32.210Z,74.43
2022-08-21T09:57:11.556Z,94.72
2022-08-21T10:04:57.942Z,94.95
2022-08-21T10:13:13.732Z,106.15
2022-08-21T13:09:08.861Z,46.63
2022-08-21T18:30:11.281Z,37.78
2022-08-21T18:52:53.777Z,39.85
2022-08-21T18:55:24.648Z,35.33
2022-08-21T19:02:52.387Z,37.28
2022-08-21T19:07:51.187Z,36.50
2022-08-21T19:13:07.257Z,40.07
2022-08-21T19:38:20.976Z,92.88
2022-08-21T19:53:14.267Z,37.17
2022-08-21T20:05:49.064Z,38.10
2022-08-21T20:11:04.601Z,37.17
2022-08-21T20:16:06.711Z,37.67
2022-08-21T20:21:03.289Z,37.60
2022-08-21T20:23:33.010Z,38.58
2022-08-21T20:28:30.219Z,41.50
2022-08-21T20:30:58.536Z,36.38
2022-08-21T20:33:26.324Z,36.50
2022-08-21T20:38:23.280Z,40.22
2022-08-21T20:40:53.717Z,35.95
2022-08-21T20:45:50.163Z,39.63
2022-08-21T20:48:28.113Z,36.55
2022-08-21T20:51:08.350Z,36.85
2022-08-21T20:53:57.545Z,36.25
2022-08-21T20:56:34.094Z,36.95
2022-08-21T20:59:24.402Z,37.60
2022-08-21T21:01:55.483Z,39.72
2022-08-21T21:04:47.001Z,38.53
2022-08-21T21:07:21.546Z,38.50
2022-08-21T21:09:53.157Z,38.63
2022-08-21T21:12:27.650Z,38.35
2022-08-21T21:15:00.410Z,38.00
2022-08-21T21:17:44.938Z,39.75
2022-08-21T21:20:21.397Z,39.05
2022-08-21T21:22:58.162Z,38.58
2022-08-21T21:25:39.959Z,37.85
2022-08-21T21:28:12.765Z,38.72
2022-08-21T21:30:47.105Z,37.55
2022-08-21T21:36:22.587Z,38.17
2022-08-21T21:39:15.384Z,37.97
2022-08-21T21:42:01.939Z,38.92
2022-08-21T21:44:52.447Z,37.55
2022-08-21T21:47:41.027Z,38.25
2022-08-21T21:53:35.396Z,37.97
2022-08-21T21:56:27.696Z,38.20
2022-08-21T21:59:09.822Z,38.25
2022-08-21T22:01:52.208Z,38.28
2022-08-21T22:04:51.232Z,37.92
2022-08-21T22:07:38.047Z,38.20
2022-08-21T22:10:30.240Z,35.85
2022-08-21T22:18:32.503Z,37.70
2022-08-21T22:21:14.693Z,38.45
2022-08-21T22:23:47.916Z,40.42
2022-08-21T22:26:20.127Z,39.35
2022-08-21T22:28:51.807Z,39.33
2022-08-21T22:31:28.795Z,39.70
2022-08-21T22:34:17.646Z,39.50
2022-08-21T22:37:07.185Z,39.42
2022-08-21T22:39:39.604Z,39.33
2022-08-21T22:42:10.955Z,40.45
2022-08-21T22:45:12.470Z,38.22
2022-08-21T22:47:46.109Z,37.58
2022-08-21T22:50:17.882Z,39.10
2022-08-21T22:52:52.578Z,38.55
2022-08-21T22:55:31.316Z,38.55
2022-08-21T22:58:08.476Z,38.50
2022-08-21T23:00:58.283Z,38.60
2022-08-21T23:03:44.584Z,38.08
2022-08-21T23:06:42.661Z,38.40
2022-08-21T23:09:19.761Z,39.00
2022-08-21T23:11:50.971Z,38.03
2022-08-21T23:14:19.212Z,38.47
2022-08-21T23:17:01.137Z,37.33
2022-08-21T23:20:02.796Z,38.05
2022-08-21T23:22:32.967Z,36.63
2022-08-21T23:25:24.966Z,37.47
2022-08-21T23:28:16.787Z,37.03
2022-08-21T23:31:14.992Z,39.03
2022-08-21T23:34:01.341Z,38.33
2022-08-21T23:36:57.935Z,37.70
2022-08-21T23:39:57.404Z,36.67
2022-08-21T23:42:45.750Z,37.25
2022-08-21T23:45:32.977Z,36.70
2022-08-21T23:48:07.722Z,39.60
2022-08-21T23:50:58.338Z,40.95
2022-08-21T23:53:50.345Z,38.75
2022-08-21T23:56:47.864Z,38.25
2022-08-21T23:59:37.921Z,38.33
